Rosario del Tala, Argentina
Current Conditions -  °F | °C
As of 11:00 AM on Monday 22 Dec 2014 (Local Time) from SUSO Reporting Station
Few Clouds Few Clouds  
Wind Chill: 73°   Ceiling: Unl
Heat Index: 73°   Visibility: 6mi
Dew Point: 39°   Wind: 20mph
Humidity: 29%   Direction: 210°SSW
Pressure: 30.03"   Gusts: NA
Location:  32.3°S, 59.15°W
Report Text: SUSO 221400Z 21017KT 9999 FEW017 23/04 Q1017
Loading
Personal Weather Stations






























Interactive Weather Map New forecast layout! Learn more

10-Day Weather Forecast

Advertisements
Track Severe Weather on mobile